createdAt,value
2023-10-21T00:01:56.420Z,5.55
2023-10-21T00:04:24.929Z,5.18
2023-10-21T00:06:52.321Z,4.68
2023-10-21T00:09:20.085Z,5.40
2023-10-21T00:11:47.419Z,4.53
2023-10-21T00:14:15.678Z,4.10
2023-10-21T00:16:42.903Z,4.95
2023-10-21T00:19:12.201Z,4.90
2023-10-21T00:21:40.530Z,5.15
2023-10-21T00:24:08.552Z,5.45
2023-10-21T00:26:49.783Z,6.22
2023-10-21T00:29:18.049Z,4.50
2023-10-21T00:31:45.854Z,5.47
2023-10-21T00:34:13.578Z,5.50
2023-10-21T00:36:40.995Z,4.85
2023-10-21T00:39:14.454Z,3.97
2023-10-21T00:41:41.857Z,6.53
2023-10-21T00:44:10.017Z,5.28
2023-10-21T00:46:38.006Z,4.57
2023-10-21T00:49:05.957Z,5.00
2023-10-21T00:51:36.792Z,5.07
2023-10-21T00:54:06.740Z,5.30
2023-10-21T00:56:41.068Z,5.25
2023-10-21T00:59:15.593Z,4.13
2023-10-21T01:01:45.422Z,5.00
2023-10-21T01:04:15.872Z,5.18
2023-10-21T01:06:44.885Z,5.32
2023-10-21T01:09:15.598Z,5.32
2023-10-21T01:11:43.679Z,5.57
2023-10-21T01:14:11.445Z,5.05
2023-10-21T01:16:39.438Z,4.70
2023-10-21T01:19:08.879Z,4.82
2023-10-21T01:21:36.123Z,4.53
2023-10-21T01:24:04.964Z,4.93
2023-10-21T01:26:32.498Z,4.68
2023-10-21T01:29:01.048Z,4.30
2023-10-21T01:31:33.951Z,4.25
2023-10-21T01:34:03.332Z,4.80
2023-10-21T01:36:30.722Z,4.80
2023-10-21T01:38:58.378Z,5.22
2023-10-21T01:41:25.787Z,4.75
2023-10-21T01:44:12.190Z,5.25
2023-10-21T01:46:39.684Z,4.95
2023-10-21T01:49:07.297Z,4.72
2023-10-21T01:51:34.513Z,5.13
2023-10-21T01:54:02.142Z,4.72
2023-10-21T01:56:29.424Z,3.95
2023-10-21T01:58:57.923Z,4.93
2023-10-21T02:01:25.342Z,4.85
2023-10-21T02:03:53.846Z,4.38
2023-10-21T02:06:21.229Z,5.10
2023-10-21T02:08:48.886Z,5.05
2023-10-21T02:11:21.310Z,5.22
2023-10-21T02:13:49.003Z,4.63
2023-10-21T02:16:16.254Z,4.40
2023-10-21T02:18:44.146Z,5.32
2023-10-21T02:21:11.657Z,4.55
2023-10-21T02:23:39.408Z,4.82
2023-10-21T02:26:10.667Z,4.82
2023-10-21T02:28:38.224Z,4.88
2023-10-21T02:31:05.536Z,5.55
2023-10-21T02:33:33.319Z,5.57
2023-10-21T02:36:00.829Z,4.60
2023-10-21T02:38:28.423Z,5.30
2023-10-21T02:40:55.835Z,5.38
2023-10-21T02:43:23.927Z,4.60
2023-10-21T02:45:51.334Z,5.07
2023-10-21T02:48:19.007Z,4.78
2023-10-21T02:50:46.314Z,4.70
2023-10-21T02:53:13.867Z,4.85
2023-10-21T02:55:41.078Z,5.32
2023-10-21T02:58:08.710Z,5.00
2023-10-21T03:00:35.972Z,4.57
2023-10-21T03:03:03.948Z,4.25
2023-10-21T03:05:31.354Z,4.90
2023-10-21T03:07:58.954Z,4.75
2023-10-21T03:10:26.264Z,4.15
2023-10-21T03:12:53.853Z,4.68
2023-10-21T03:15:21.104Z,4.55
2023-10-21T03:17:48.930Z,4.95
2023-10-21T03:20:17.775Z,4.57
2023-10-21T03:22:45.730Z,5.20
2023-10-21T03:25:13.054Z,5.20
2023-10-21T03:27:40.649Z,4.97
2023-10-21T03:30:08.962Z,4.85
2023-10-21T03:32:37.535Z,4.85
2023-10-21T03:35:05.645Z,4.60
2023-10-21T03:37:35.377Z,4.30
2023-10-21T03:40:07.160Z,5.57
2023-10-21T03:42:35.123Z,4.85
2023-10-21T03:45:03.373Z,5.15
2023-10-21T03:47:31.052Z,5.55
2023-10-21T03:49:59.027Z,4.75
2023-10-21T03:52:26.643Z,4.50
2023-10-21T03:54:53.865Z,4.40
2023-10-21T03:57:23.134Z,5.25
2023-10-21T03:59:50.757Z,5.32
2023-10-21T04:02:18.337Z,5.03
2023-10-21T04:04:45.663Z,5.68
2023-10-21T04:07:13.431Z,5.93
2023-10-21T04:09:40.930Z,4.82
2023-10-21T04:12:08.790Z,4.72
2023-10-21T04:14:36.314Z,4.85
2023-10-21T04:17:04.307Z,4.97
2023-10-21T04:19:31.500Z,5.25
2023-10-21T04:22:00.189Z,4.60
2023-10-21T04:24:27.612Z,5.18
2023-10-21T04:26:55.678Z,5.13
2023-10-21T04:29:23.044Z,5.82
2023-10-21T04:31:50.592Z,5.70
2023-10-21T04:34:17.760Z,5.25
2023-10-21T04:36:45.304Z,4.93
2023-10-21T04:39:12.573Z,4.45
2023-10-21T04:41:40.417Z,4.32
2023-10-21T04:44:08.490Z,5.45
2023-10-21T04:46:36.079Z,4.65
2023-10-21T04:49:03.491Z,5.03
2023-10-21T04:51:31.046Z,4.75
2023-10-21T04:53:58.616Z,5.20
2023-10-21T04:56:29.366Z,5.15
2023-10-21T04:58:56.825Z,5.38
2023-10-21T05:01:24.544Z,4.70
2023-10-21T05:03:52.167Z,5.00
2023-10-21T05:06:19.858Z,5.25
2023-10-21T05:08:47.462Z,4.82
2023-10-21T05:11:15.037Z,5.63
2023-10-21T05:13:43.161Z,4.35
2023-10-21T05:16:10.758Z,5.45
2023-10-21T05:18:37.998Z,5.93
2023-10-21T05:21:09.113Z,6.43
2023-10-21T05:23:36.730Z,4.38
2023-10-21T05:26:04.995Z,5.05
2023-10-21T05:28:32.568Z,5.13
2023-10-21T05:31:02.522Z,4.82
2023-10-21T05:33:30.267Z,5.00
2023-10-21T05:35:59.957Z,5.30
2023-10-21T05:38:27.785Z,5.03
2023-10-21T05:40:58.967Z,3.67
2023-10-21T05:43:26.548Z,5.25
2023-10-21T05:45:54.835Z,4.45
2023-10-21T05:48:22.640Z,4.47
2023-10-21T05:50:50.425Z,4.53
2023-10-21T05:53:17.811Z,5.20
2023-10-21T05:55:45.383Z,4.72
2023-10-21T05:58:14.389Z,5.57
2023-10-21T06:00:42.007Z,5.78
2023-10-21T06:03:09.480Z,5.40
2023-10-21T06:05:38.115Z,5.60
2023-10-21T06:08:05.920Z,5.53
2023-10-21T06:10:33.635Z,4.82
2023-10-21T06:13:00.868Z,4.63
2023-10-21T06:15:29.124Z,4.72
2023-10-21T06:17:56.435Z,4.55
2023-10-21T06:20:25.507Z,4.95
2023-10-21T06:22:55.183Z,5.40
2023-10-21T06:25:22.835Z,4.78
2023-10-21T06:27:50.221Z,6.13
2023-10-21T06:30:17.970Z,5.70
2023-10-21T06:32:45.271Z,5.10
2023-10-21T06:35:13.953Z,5.57
2023-10-21T06:37:45.057Z,4.57
2023-10-21T06:40:19.119Z,5.60
2023-10-21T06:42:57.401Z,4.68
2023-10-21T06:45:27.061Z,4.55
2023-10-21T06:47:55.022Z,5.90
2023-10-21T06:50:24.136Z,6.78
2023-10-21T06:52:53.566Z,6.03
2023-10-21T06:55:21.669Z,5.53
2023-10-21T06:57:48.996Z,5.80
2023-10-21T07:00:17.590Z,6.13
2023-10-21T07:02:45.023Z,5.78
2023-10-21T07:05:12.796Z,6.30
2023-10-21T07:07:43.391Z,6.32
2023-10-21T07:10:11.376Z,8.07
2023-10-21T07:12:40.196Z,7.95
2023-10-21T07:15:11.008Z,7.10
2023-10-21T07:17:38.428Z,7.75
2023-10-21T07:20:09.714Z,9.13
2023-10-21T07:22:37.576Z,7.25
2023-10-21T07:25:09.951Z,7.65
2023-10-21T07:27:38.781Z,7.50
2023-10-21T07:30:08.203Z,7.05
2023-10-21T07:32:35.516Z,6.97
2023-10-21T07:35:04.789Z,7.00
2023-10-21T07:37:32.620Z,8.88
2023-10-21T07:40:01.105Z,7.93
2023-10-21T07:42:28.624Z,7.75
2023-10-21T07:44:56.390Z,7.20
2023-10-21T07:47:24.174Z,8.02
2023-10-21T07:49:55.649Z,7.88
2023-10-21T07:52:24.222Z,7.43
2023-10-21T07:54:56.249Z,5.72
2023-10-21T07:57:24.071Z,7.45
2023-10-21T07:59:52.248Z,7.82
2023-10-21T08:02:48.298Z,6.63
2023-10-21T08:05:25.880Z,6.97
2023-10-21T08:07:59.250Z,6.53
2023-10-21T08:10:52.894Z,7.15
2023-10-21T08:13:35.536Z,8.07
2023-10-21T08:16:30.476Z,7.47
2023-10-21T08:19:00.054Z,8.02
2023-10-21T08:21:31.423Z,7.90
2023-10-21T08:24:01.214Z,7.55
2023-10-21T08:26:33.392Z,7.03
2023-10-21T08:29:10.514Z,6.68
2023-10-21T08:31:49.037Z,8.18
2023-10-21T08:34:16.407Z,6.65
2023-10-21T08:36:45.725Z,8.85
2023-10-21T08:39:14.210Z,8.32
2023-10-21T08:41:42.269Z,7.90
2023-10-21T08:44:10.180Z,7.38
2023-10-21T08:46:39.286Z,7.95
2023-10-21T08:49:09.918Z,9.00
2023-10-21T08:51:38.741Z,7.18
2023-10-21T08:54:08.380Z,7.95
2023-10-21T08:56:37.340Z,7.88
2023-10-21T08:59:07.052Z,7.40
2023-10-21T09:01:36.841Z,8.55
2023-10-21T09:04:04.875Z,7.90
2023-10-21T09:06:33.007Z,7.28
2023-10-21T09:09:01.775Z,7.35
2023-10-21T09:11:31.579Z,8.10
2023-10-21T09:14:00.383Z,7.28
2023-10-21T09:16:33.223Z,6.30
2023-10-21T09:19:08.847Z,7.90
2023-10-21T09:21:40.184Z,7.43
2023-10-21T09:24:10.902Z,7.60
2023-10-21T09:26:43.871Z,7.13
2023-10-21T09:29:13.131Z,9.23
2023-10-21T09:31:50.090Z,8.50
2023-10-21T09:34:33.357Z,10.57
2023-10-21T09:37:04.146Z,10.85
2023-10-21T09:39:39.552Z,10.80
2023-10-21T09:42:08.121Z,9.88
2023-10-21T09:44:36.655Z,8.80
2023-10-21T09:47:08.175Z,7.47
2023-10-21T09:49:41.857Z,8.27
2023-10-21T09:52:16.316Z,7.68
2023-10-21T09:54:51.058Z,6.75
2023-10-21T09:57:19.705Z,7.90
2023-10-21T09:59:48.523Z,7.20
2023-10-21T10:02:17.269Z,7.75
2023-10-21T10:04:45.060Z,6.80
2023-10-21T10:07:33.585Z,7.05
2023-10-21T10:10:08.929Z,8.43
2023-10-21T10:12:49.012Z,11.10
2023-10-21T10:15:34.045Z,11.32
2023-10-21T10:18:06.917Z,11.45
2023-10-21T10:20:59.598Z,10.70
2023-10-21T10:23:31.253Z,9.13
2023-10-21T10:25:59.498Z,9.82
2023-10-21T10:28:28.462Z,8.90
2023-10-21T10:30:58.189Z,8.88
2023-10-21T10:33:36.455Z,8.73
2023-10-21T10:36:40.071Z,8.82
2023-10-21T10:39:42.552Z,9.43
2023-10-21T10:42:14.278Z,7.68
2023-10-21T10:45:09.123Z,9.68
2023-10-21T10:47:41.089Z,10.35
2023-10-21T10:50:19.858Z,9.93
2023-10-21T10:53:06.221Z,9.80
2023-10-21T10:55:37.006Z,9.85
2023-10-21T10:58:10.040Z,10.38
2023-10-21T11:00:40.736Z,11.85
2023-10-21T11:03:20.196Z,10.85
2023-10-21T11:05:49.763Z,11.52
2023-10-21T11:08:19.405Z,12.77
2023-10-21T11:10:48.725Z,12.25
2023-10-21T11:13:25.833Z,12.48
2023-10-21T11:15:56.040Z,13.55
2023-10-21T11:18:28.151Z,13.70
2023-10-21T11:20:55.829Z,12.55
2023-10-21T11:23:29.533Z,12.02
2023-10-21T11:26:00.124Z,11.77
2023-10-21T11:28:33.686Z,12.20
2023-10-21T11:31:04.200Z,13.25
2023-10-21T11:33:31.786Z,12.52
2023-10-21T11:36:06.400Z,11.32
2023-10-21T11:38:36.346Z,11.60
2023-10-21T11:41:08.882Z,12.18
2023-10-21T11:43:36.491Z,13.02
2023-10-21T11:46:07.269Z,13.15
2023-10-21T11:48:34.558Z,12.15
2023-10-21T11:51:03.071Z,11.77
2023-10-21T11:53:33.005Z,10.90
2023-10-21T11:56:23.400Z,11.88
2023-10-21T11:59:09.822Z,11.02
2023-10-21T12:01:56.031Z,10.23
2023-10-21T12:04:41.907Z,11.98
2023-10-21T12:07:28.655Z,10.40
2023-10-21T12:10:14.417Z,12.85
2023-10-21T12:12:50.907Z,10.75
2023-10-21T12:15:41.516Z,10.52
2023-10-21T12:18:12.385Z,11.77
2023-10-21T12:20:45.764Z,11.57
2023-10-21T12:23:32.182Z,11.07
2023-10-21T12:26:18.932Z,10.25
2023-10-21T12:28:46.597Z,10.43
2023-10-21T12:31:32.454Z,12.02
2023-10-21T12:34:18.548Z,10.25
2023-10-21T12:37:04.223Z,11.05
2023-10-21T12:39:48.599Z,11.55
2023-10-21T12:42:22.967Z,10.73
2023-10-21T12:45:04.861Z,10.45
2023-10-21T12:47:32.175Z,10.95
2023-10-21T12:49:59.747Z,11.60
2023-10-21T12:52:27.082Z,12.38
2023-10-21T12:54:54.950Z,11.35
2023-10-21T12:57:22.726Z,11.23
2023-10-21T12:59:51.814Z,11.95
2023-10-21T13:02:19.335Z,12.20
2023-10-21T13:04:47.221Z,13.27
2023-10-21T13:07:14.585Z,12.80
2023-10-21T13:09:44.110Z,14.63
2023-10-21T13:12:15.962Z,12.50
2023-10-21T13:14:45.989Z,14.10
2023-10-21T13:17:13.690Z,12.75
2023-10-21T13:19:41.494Z,12.70
2023-10-21T13:22:09.091Z,12.07
2023-10-21T13:24:37.613Z,13.02
2023-10-21T13:27:06.360Z,14.15
2023-10-21T13:29:34.307Z,13.43
2023-10-21T13:32:10.650Z,14.57
2023-10-21T13:34:39.668Z,13.40
2023-10-21T13:37:08.700Z,12.65
2023-10-21T13:39:40.530Z,13.95
2023-10-21T13:42:17.443Z,13.63
2023-10-21T13:44:48.477Z,13.57
2023-10-21T13:47:19.797Z,13.52
2023-10-21T13:49:48.972Z,13.95
2023-10-21T13:52:22.232Z,14.10
2023-10-21T13:54:51.512Z,13.65
2023-10-21T14:00:33.502Z,13.23
2023-10-21T14:03:23.425Z,14.05
2023-10-21T14:05:53.475Z,15.15
2023-10-21T14:08:27.434Z,14.52
2023-10-21T14:10:57.075Z,14.50
2023-10-21T14:13:27.940Z,14.52
2023-10-21T14:16:06.217Z,14.25
2023-10-21T14:18:34.097Z,13.38
2023-10-21T14:21:02.014Z,12.73
2023-10-21T14:23:29.837Z,12.52
2023-10-21T14:26:01.582Z,12.43
2023-10-21T14:28:31.964Z,12.15
2023-10-21T14:31:01.482Z,12.15
2023-10-21T14:33:32.873Z,12.57
2023-10-21T14:36:07.543Z,12.52
2023-10-21T14:38:36.123Z,12.38
2023-10-21T14:41:11.211Z,13.52
2023-10-21T14:44:03.263Z,11.63
2023-10-21T14:46:31.670Z,14.18
2023-10-21T14:48:59.048Z,13.63
2023-10-21T14:51:27.856Z,12.40
2023-10-21T14:54:01.955Z,14.27
2023-10-21T14:56:32.983Z,13.90
2023-10-21T14:59:01.313Z,16.67
2023-10-21T15:01:29.551Z,17.20
2023-10-21T15:03:57.210Z,18.23
2023-10-21T15:06:31.851Z,20.20
2023-10-21T15:09:01.684Z,19.35
2023-10-21T15:11:31.815Z,16.30
2023-10-21T15:13:59.287Z,15.60
2023-10-21T15:16:26.924Z,13.85
2023-10-21T15:18:54.181Z,14.70
2023-10-21T15:21:22.708Z,13.25
2023-10-21T15:23:53.546Z,13.52
2023-10-21T15:27:13.098Z,14.07
2023-10-21T15:29:43.470Z,12.52
2023-10-21T15:32:14.702Z,14.00
2023-10-21T15:34:48.080Z,13.95
2023-10-21T15:37:16.232Z,13.25
2023-10-21T15:39:46.909Z,13.30
2023-10-21T15:42:17.270Z,14.02
2023-10-21T15:44:48.251Z,13.05
2023-10-21T15:47:17.012Z,13.35
2023-10-21T15:49:45.623Z,12.90
2023-10-21T15:52:18.973Z,12.93
2023-10-21T15:54:46.342Z,13.52
2023-10-21T15:57:14.462Z,13.25
2023-10-21T15:59:42.587Z,12.23
2023-10-21T16:02:11.347Z,13.43
2023-10-21T16:04:39.340Z,12.60
2023-10-21T16:07:07.025Z,13.88
2023-10-21T16:09:34.925Z,15.90
2023-10-21T16:12:02.635Z,18.02
2023-10-21T16:14:34.873Z,17.35
2023-10-21T16:17:02.867Z,16.42
2023-10-21T16:19:31.598Z,15.57
2023-10-21T16:21:59.257Z,15.40
2023-10-21T16:24:28.673Z,15.00
2023-10-21T16:26:56.712Z,15.80
2023-10-21T16:29:24.022Z,13.45
2023-10-21T16:31:54.315Z,14.15
2023-10-21T16:34:23.202Z,13.45
2023-10-21T16:36:51.318Z,13.05
2023-10-21T16:39:18.541Z,13.57
2023-10-21T16:41:46.431Z,13.27
2023-10-21T16:44:13.965Z,13.80
2023-10-21T16:46:44.740Z,13.23
2023-10-21T16:49:11.982Z,14.93
2023-10-21T16:51:39.636Z,14.40
2023-10-21T16:54:07.058Z,14.82
2023-10-21T16:56:34.743Z,15.60
2023-10-21T16:59:07.942Z,15.52
2023-10-21T17:01:35.818Z,15.52
2023-10-21T17:04:03.407Z,15.95
2023-10-21T17:06:32.458Z,15.45
2023-10-21T17:09:00.788Z,13.90
2023-10-21T17:11:28.479Z,13.18
2023-10-21T17:13:58.525Z,13.57
2023-10-21T17:16:26.108Z,12.45
2023-10-21T17:18:56.785Z,12.35
2023-10-21T17:21:26.902Z,13.25
2023-10-21T17:23:54.920Z,12.27
2023-10-21T17:26:22.982Z,12.18
2023-10-21T17:28:51.128Z,11.60
2023-10-21T17:31:21.182Z,13.10
2023-10-21T17:33:51.151Z,11.43
2023-10-21T17:36:21.918Z,12.68
2023-10-21T17:38:52.915Z,11.68
2023-10-21T17:41:20.700Z,12.35
2023-10-21T17:43:50.207Z,13.23
2023-10-21T17:46:19.242Z,13.63
2023-10-21T17:48:46.539Z,12.25
2023-10-21T17:51:15.948Z,14.25
2023-10-21T17:53:44.365Z,13.27
2023-10-21T17:56:13.018Z,13.35
2023-10-21T17:58:40.676Z,14.35
2023-10-21T18:01:10.802Z,14.65
2023-10-21T18:03:40.357Z,16.70
2023-10-21T18:06:08.245Z,14.65
2023-10-21T18:08:35.876Z,14.32
2023-10-21T18:11:03.368Z,12.63
2023-10-21T18:13:35.406Z,9.32
2023-10-21T18:16:04.567Z,8.70
2023-10-21T18:18:33.104Z,8.27
2023-10-21T18:21:00.786Z,8.35
2023-10-21T18:23:29.434Z,6.78
2023-10-21T18:26:06.339Z,7.95
2023-10-21T18:28:35.241Z,5.63
2023-10-21T18:31:06.207Z,7.53
2023-10-21T18:33:33.623Z,5.82
2023-10-21T18:36:04.183Z,6.18
2023-10-21T18:38:33.487Z,6.13
2023-10-21T18:41:02.085Z,8.05
2023-10-21T18:43:35.157Z,6.50
2023-10-21T18:46:09.326Z,6.00
2023-10-21T18:48:39.534Z,4.95
2023-10-21T18:51:14.432Z,4.05
2023-10-21T18:53:41.892Z,4.53
2023-10-21T18:56:11.947Z,3.92
2023-10-21T18:58:39.297Z,5.00
2023-10-21T19:01:07.452Z,4.45
2023-10-21T19:03:35.124Z,3.95
2023-10-21T19:06:02.686Z,4.03
2023-10-21T19:08:30.062Z,4.68
2023-10-21T19:10:57.744Z,4.35
2023-10-21T19:13:25.052Z,5.30
2023-10-21T19:15:54.012Z,4.45
2023-10-21T19:18:22.490Z,8.50
2023-10-21T19:20:58.792Z,5.05
2023-10-21T19:23:35.973Z,4.85
2023-10-21T19:26:06.912Z,5.15
2023-10-21T19:28:36.058Z,4.43
2023-10-21T19:31:15.297Z,5.95
2023-10-21T19:33:43.358Z,4.53
2023-10-21T19:36:12.811Z,5.78
2023-10-21T19:38:40.449Z,7.65
2023-10-21T19:41:10.958Z,5.88
2023-10-21T19:43:38.509Z,7.80
2023-10-21T19:46:08.040Z,6.53
2023-10-21T19:48:38.056Z,5.22
2023-10-21T19:51:15.614Z,5.47
2023-10-21T19:53:49.067Z,5.63
2023-10-21T19:56:17.355Z,5.05
2023-10-21T19:58:47.533Z,5.57
2023-10-21T20:01:19.525Z,4.85
2023-10-21T20:03:48.980Z,4.80
2023-10-21T20:06:19.607Z,4.93
2023-10-21T20:08:48.294Z,4.47
2023-10-21T20:11:23.583Z,4.65
2023-10-21T20:13:55.391Z,4.63
2023-10-21T20:16:29.172Z,5.70
2023-10-21T20:18:56.804Z,4.63
2023-10-21T20:21:24.643Z,5.18
2023-10-21T20:23:56.480Z,4.78
2023-10-21T20:26:24.712Z,3.80
2023-10-21T20:28:56.161Z,4.03
2023-10-21T20:31:25.496Z,3.28
2023-10-21T20:33:53.381Z,4.03
2023-10-21T20:36:24.355Z,3.85
2023-10-21T20:38:52.895Z,2.70
2023-10-21T20:41:21.493Z,2.42
2023-10-21T20:43:49.820Z,2.42
2023-10-21T20:46:43.354Z,2.78
2023-10-21T20:49:10.678Z,2.47
2023-10-21T20:51:38.337Z,2.67
2023-10-21T20:54:07.430Z,2.90
2023-10-21T20:56:37.483Z,2.13
2023-10-21T20:59:06.739Z,2.83
2023-10-21T21:01:37.900Z,2.78
2023-10-21T21:04:07.868Z,2.72
2023-10-21T21:06:38.176Z,2.45
2023-10-21T21:09:06.864Z,3.42
2023-10-21T21:11:36.017Z,3.15
2023-10-21T21:14:03.291Z,2.40
2023-10-21T21:16:31.220Z,3.40
2023-10-21T21:18:59.843Z,3.00
2023-10-21T21:21:28.041Z,3.20
2023-10-21T21:23:57.351Z,3.08
2023-10-21T21:26:25.558Z,3.50
2023-10-21T21:28:53.955Z,3.15
2023-10-21T21:31:23.137Z,3.35
2023-10-21T21:33:50.740Z,3.40
2023-10-21T21:36:21.766Z,3.00
2023-10-21T21:38:49.264Z,2.78
2023-10-21T21:41:21.260Z,2.90
2023-10-21T21:43:53.186Z,3.05
2023-10-21T21:46:21.977Z,2.13
2023-10-21T21:48:49.684Z,3.40
2023-10-21T21:51:17.607Z,2.97
2023-10-21T21:53:45.484Z,3.20
2023-10-21T21:56:13.132Z,2.88
2023-10-21T21:58:41.134Z,3.15
2023-10-21T22:01:08.835Z,2.33
2023-10-21T22:03:36.800Z,2.47
2023-10-21T22:06:05.678Z,2.63
2023-10-21T22:08:35.204Z,2.15
2023-10-21T22:11:10.433Z,2.50
2023-10-21T22:13:39.514Z,2.47
2023-10-21T22:16:09.821Z,2.40
2023-10-21T22:18:37.241Z,1.70
2023-10-21T22:21:07.720Z,2.05
2023-10-21T22:23:54.428Z,2.72
2023-10-21T22:26:32.154Z,2.70
2023-10-21T22:29:04.884Z,2.30
2023-10-21T22:31:34.580Z,2.17
2023-10-21T22:34:06.976Z,2.10
2023-10-21T22:36:39.180Z,2.28
2023-10-21T22:39:28.777Z,2.25
2023-10-21T22:41:58.007Z,2.30
2023-10-21T22:44:25.640Z,2.00
2023-10-21T22:46:54.294Z,2.72
2023-10-21T22:49:47.910Z,1.98
2023-10-21T22:52:19.077Z,1.67
2023-10-21T22:54:47.819Z,1.77
2023-10-21T22:57:15.594Z,1.95
2023-10-21T22:59:42.853Z,2.00
2023-10-21T23:02:10.468Z,1.50
2023-10-21T23:04:38.114Z,2.13
2023-10-21T23:07:10.292Z,1.80
2023-10-21T23:09:41.968Z,2.30
2023-10-21T23:12:19.736Z,2.75
2023-10-21T23:14:49.350Z,2.45
2023-10-21T23:17:18.789Z,2.13
2023-10-21T23:19:47.497Z,2.05
2023-10-21T23:22:15.738Z,2.22
2023-10-21T23:24:43.386Z,2.47
2023-10-21T23:27:14.632Z,1.60
2023-10-21T23:29:42.795Z,1.95
2023-10-21T23:32:21.274Z,1.95
2023-10-21T23:34:49.152Z,1.83
2023-10-21T23:37:18.084Z,1.90
2023-10-21T23:39:45.357Z,1.60
2023-10-21T23:42:15.440Z,1.98
2023-10-21T23:44:43.296Z,1.70
2023-10-21T23:47:10.907Z,2.08
2023-10-21T23:49:38.814Z,1.42
2023-10-21T23:52:07.810Z,1.80
2023-10-21T23:54:37.520Z,1.73
2023-10-21T23:57:07.649Z,2.17
2023-10-21T23:59:43.162Z,1.85
